Time;durP1;ratioP1;P1;durP2;ratioP2;P2;SDS_P1;SDS_P2;PMS_P1;PMS_P2;Temp;Humidity;BMP_temperature;BMP_pressure;BME280_temperature;BME280_humidity;BME280_pressure;Samples;Min_cycle;Max_cycle;Signal;HPM_P1;HPM_P2
2022/08/08 00:01:40;;;;;;;3.33;2.13;;;16.20;99.90;;;;;;5032231;28;20465;-71
2022/08/08 00:04:19;;;;;;;1.67;1.47;;;16.10;99.90;;;;;;5031829;28;20422;-71
2022/08/08 00:06:56;;;;;;;1.97;1.60;;;16.10;99.90;;;;;;5032942;28;20449;-71
2022/08/08 00:09:37;;;;;;;3.87;3.47;;;16.10;99.90;;;;;;5032389;28;20500;-71
2022/08/08 00:12:08;;;;;;;2.20;1.93;;;16.00;99.90;;;;;;5032255;28;20437;-70
2022/08/08 00:15:08;;;;;;;3.03;2.20;;;16.00;99.90;;;;;;5032105;28;20470;-70
2022/08/08 00:17:50;;;;;;;1.80;1.70;;;16.00;99.90;;;;;;5032344;28;20433;-71
2022/08/08 00:20:24;;;;;;;2.47;1.60;;;16.00;99.90;;;;;;5032344;28;20802;-71
2022/08/08 00:22:51;;;;;;;2.70;2.40;;;15.90;99.90;;;;;;5032149;28;20444;-71
2022/08/08 00:25:22;;;;;;;3.10;2.30;;;15.90;99.90;;;;;;5031783;28;20402;-71
2022/08/08 00:27:51;;;;;;;2.23;1.50;;;15.90;99.90;;;;;;5032323;28;20402;-70
2022/08/08 00:30:17;;;;;;;3.30;1.73;;;15.90;99.90;;;;;;5031978;28;20481;-70
2022/08/08 00:32:54;;;;;;;2.30;1.80;;;15.80;99.90;;;;;;5031960;28;20430;-70
2022/08/08 00:35:39;;;;;;;3.13;2.20;;;15.80;99.90;;;;;;5031775;28;20460;-70
2022/08/08 00:38:07;;;;;;;3.07;1.87;;;15.80;99.90;;;;;;5031927;28;20406;-71
2022/08/08 00:41:10;;;;;;;3.03;2.30;;;15.80;99.90;;;;;;5031835;28;20417;-70
2022/08/08 00:43:53;;;;;;;2.30;2.03;;;15.80;99.90;;;;;;5031810;28;20410;-70
2022/08/08 00:46:49;;;;;;;2.30;2.07;;;15.70;99.90;;;;;;5031593;28;20410;-71
2022/08/08 00:49:54;;;;;;;2.70;2.10;;;15.70;99.90;;;;;;5031931;28;20819;-71
2022/08/08 00:52:47;;;;;;;1.83;1.57;;;15.70;99.90;;;;;;5031651;28;20445;-71
2022/08/08 00:55:48;;;;;;;3.90;2.10;;;15.70;99.90;;;;;;5031468;28;20406;-71
2022/08/08 00:58:38;;;;;;;3.13;2.20;;;15.60;99.90;;;;;;5031812;28;20830;-71
2022/08/08 01:01:09;;;;;;;3.20;2.07;;;15.60;99.90;;;;;;5031694;28;20501;-70
2022/08/08 01:04:19;;;;;;;2.07;1.80;;;15.60;99.90;;;;;;5030582;28;20421;-71
2022/08/08 01:07:09;;;;;;;2.40;1.87;;;15.60;99.90;;;;;;5031900;28;20410;-71
2022/08/08 01:09:57;;;;;;;4.00;2.47;;;15.50;99.90;;;;;;5035503;28;20836;-70
2022/08/08 01:12:56;;;;;;;2.50;2.30;;;15.50;99.90;;;;;;5035438;28;20414;-70
2022/08/08 01:16:09;;;;;;;2.20;1.90;;;15.40;99.90;;;;;;5035172;28;20402;-70
2022/08/08 01:18:53;;;;;;;5.13;2.17;;;15.40;99.90;;;;;;5034285;28;20907;-70
2022/08/08 01:21:51;;;;;;;6.07;2.90;;;15.40;99.90;;;;;;5034840;28;20517;-70
2022/08/08 01:24:38;;;;;;;1.90;1.60;;;15.40;99.90;;;;;;5035029;28;20402;-70
2022/08/08 01:27:47;;;;;;;2.87;1.90;;;15.30;99.90;;;;;;5035258;28;20398;-70
2022/08/08 01:30:45;;;;;;;3.23;2.27;;;15.30;99.90;;;;;;5035227;28;20972;-70
2022/08/08 01:33:52;;;;;;;2.77;1.80;;;15.30;99.90;;;;;;5035130;28;20401;-70
2022/08/08 01:36:43;;;;;;;2.70;1.77;;;15.20;99.90;;;;;;5034959;28;20481;-70
2022/08/08 01:39:15;;;;;;;7.40;2.23;;;15.30;99.90;;;;;;5035017;28;20430;-71
2022/08/08 01:42:04;;;;;;;2.17;1.83;;;15.30;99.90;;;;;;5033771;28;20426;-70
2022/08/08 01:44:54;;;;;;;3.57;2.10;;;15.30;99.90;;;;;;5033300;28;20418;-72
2022/08/08 01:47:57;;;;;;;1.80;1.63;;;15.20;99.90;;;;;;5033543;28;20487;-71
2022/08/08 01:50:48;;;;;;;2.80;2.23;;;15.20;99.90;;;;;;5034389;28;20560;-72
2022/08/08 01:53:44;;;;;;;2.23;1.87;;;15.20;99.90;;;;;;5033742;28;20406;-71
2022/08/08 01:56:36;;;;;;;4.50;2.23;;;15.20;99.90;;;;;;5034533;28;20446;-72
2022/08/08 01:59:36;;;;;;;2.80;1.60;;;15.20;99.90;;;;;;5034715;28;20417;-71
2022/08/08 02:02:31;;;;;;;2.40;2.00;;;15.20;99.90;;;;;;5034514;28;20957;-71
2022/08/08 02:05:11;;;;;;;3.03;2.20;;;15.20;99.90;;;;;;5033614;28;20415;-71
2022/08/08 02:08:01;;;;;;;3.30;2.80;;;15.10;99.90;;;;;;5034524;28;20390;-71
2022/08/08 02:10:33;;;;;;;3.97;2.60;;;15.10;99.90;;;;;;5032994;28;20446;-71
2022/08/08 02:13:04;;;;;;;3.87;3.03;;;15.00;99.90;;;;;;5034396;28;20449;-71
2022/08/08 02:15:56;;;;;;;5.50;2.60;;;15.00;99.90;;;;;;5032656;28;20418;-71
2022/08/08 02:18:42;;;;;;;3.63;2.77;;;15.00;99.90;;;;;;5031840;28;20829;-71
2022/08/08 02:24:11;;;;;;;2.80;2.27;;;15.00;99.90;;;;;;5034158;28;20401;-71
2022/08/08 02:26:43;;;;;;;3.03;2.30;;;14.90;99.90;;;;;;5034000;28;20909;-71
2022/08/08 02:29:38;;;;;;;3.80;2.70;;;14.90;99.90;;;;;;5034127;28;20421;-71
2022/08/08 02:32:30;;;;;;;3.00;2.33;;;14.90;99.90;;;;;;5032782;28;21013;-71
2022/08/08 02:35:01;;;;;;;3.20;2.13;;;14.80;99.90;;;;;;5033742;28;20769;-71
2022/08/08 02:37:53;;;;;;;3.70;2.83;;;14.90;99.90;;;;;;5034215;28;20409;-71
2022/08/08 02:40:29;;;;;;;3.10;2.20;;;14.80;99.90;;;;;;5033938;28;20403;-71
2022/08/08 02:43:32;;;;;;;4.50;2.60;;;14.80;99.90;;;;;;5032539;28;20997;-71
2022/08/08 02:46:16;;;;;;;4.90;3.13;;;14.80;99.90;;;;;;5033234;28;20425;-71
2022/08/08 02:48:48;;;;;;;4.87;2.50;;;14.70;99.90;;;;;;5033752;28;20395;-70
2022/08/08 02:51:57;;;;;;;4.50;3.03;;;14.80;99.90;;;;;;5032385;28;20473;-70
2022/08/08 02:54:51;;;;;;;6.60;3.17;;;14.80;99.90;;;;;;5032267;28;20406;-71
2022/08/08 02:57:47;;;;;;;3.47;3.17;;;14.70;99.90;;;;;;5033522;28;20445;-71
2022/08/08 03:00:43;;;;;;;3.83;2.80;;;14.70;99.90;;;;;;5033701;28;20417;-71
2022/08/08 03:03:22;;;;;;;4.03;3.10;;;14.60;99.90;;;;;;5033617;28;20399;-70
2022/08/08 03:06:27;;;;;;;4.53;2.57;;;14.60;99.90;;;;;;5033151;28;20434;-71
2022/08/08 03:09:11;;;;;;;2.77;2.20;;;14.50;99.90;;;;;;5033309;28;20489;-71
2022/08/08 03:12:04;;;;;;;6.20;4.13;;;14.50;99.90;;;;;;5033043;28;20466;-71
2022/08/08 03:14:43;;;;;;;4.23;2.67;;;14.50;99.90;;;;;;5032714;28;20398;-70
2022/08/08 03:17:13;;;;;;;5.97;3.40;;;14.50;99.90;;;;;;5033178;28;20876;-71
2022/08/08 03:20:06;;;;;;;5.07;3.60;;;14.50;99.90;;;;;;5031989;28;20414;-70
2022/08/08 03:22:32;;;;;;;7.07;2.83;;;14.40;99.90;;;;;;5031834;28;20970;-71
2022/08/08 03:25:03;;;;;;;3.43;2.67;;;14.50;99.90;;;;;;5032717;28;20398;-70
2022/08/08 03:27:36;;;;;;;3.90;2.83;;;14.40;99.90;;;;;;5033007;28;20170;-71
2022/08/08 03:30:10;;;;;;;3.10;2.40;;;14.40;99.90;;;;;;5032597;28;20438;-71
2022/08/08 03:35:24;;;;;;;3.20;2.90;;;14.40;99.90;;;;;;5032853;28;20472;-71
2022/08/08 03:37:51;;;;;;;5.23;2.93;;;14.30;99.90;;;;;;5032820;28;20403;-71
2022/08/08 03:40:19;;;;;;;4.37;2.97;;;14.30;99.90;;;;;;5031482;28;20413;-70
2022/08/08 03:42:45;;;;;;;4.23;2.97;;;14.30;99.90;;;;;;5032656;28;20465;-71
2022/08/08 03:45:12;;;;;;;4.43;2.77;;;14.30;99.90;;;;;;5031183;28;20928;-72
2022/08/08 03:47:38;;;;;;;3.00;2.40;;;14.30;99.90;;;;;;5032629;28;20501;-71
2022/08/08 03:50:03;;;;;;;6.80;3.47;;;14.30;99.90;;;;;;5032571;28;20532;-72
2022/08/08 03:52:32;;;;;;;2.50;2.30;;;14.20;99.90;;;;;;5031162;28;20253;-71
2022/08/08 03:54:58;;;;;;;3.50;3.17;;;14.20;99.90;;;;;;5032224;28;20204;-70
2022/08/08 03:57:23;;;;;;;3.80;3.03;;;14.20;99.90;;;;;;5032506;28;20827;-71
2022/08/08 03:59:49;;;;;;;3.73;2.80;;;14.20;99.90;;;;;;5032379;28;20176;-72
2022/08/08 04:02:18;;;;;;;4.80;3.20;;;14.20;99.90;;;;;;5032412;28;20632;-73
2022/08/08 04:04:44;;;;;;;5.63;3.70;;;14.20;99.90;;;;;;5032296;28;20206;-73
2022/08/08 04:07:10;;;;;;;5.17;2.90;;;14.20;99.90;;;;;;5032440;28;20858;-71
2022/08/08 04:09:37;;;;;;;5.87;3.50;;;14.20;99.90;;;;;;5031163;28;20493;-71
2022/08/08 04:12:03;;;;;;;3.10;2.73;;;14.20;99.90;;;;;;5032209;28;20568;-71
2022/08/08 04:14:29;;;;;;;4.30;2.80;;;14.20;99.90;;;;;;5031969;28;20415;-71
2022/08/08 04:16:55;;;;;;;3.33;2.43;;;14.20;99.90;;;;;;5032096;28;20408;-71
2022/08/08 04:19:20;;;;;;;3.90;3.50;;;14.10;99.90;;;;;;5032083;28;20254;-71
2022/08/08 04:21:46;;;;;;;3.47;3.13;;;14.20;99.90;;;;;;5032051;28;20851;-73
2022/08/08 04:24:12;;;;;;;6.23;3.30;;;14.20;99.90;;;;;;5032028;28;20163;-71
2022/08/08 04:26:37;;;;;;;5.00;3.83;;;14.20;99.90;;;;;;5031985;28;20576;-71
2022/08/08 04:29:03;;;;;;;4.90;3.20;;;14.20;99.90;;;;;;5032027;28;20211;-71
2022/08/08 04:31:29;;;;;;;6.97;3.93;;;14.30;99.90;;;;;;5031810;28;20203;-71
2022/08/08 04:33:54;;;;;;;5.30;4.13;;;14.30;99.90;;;;;;5031939;28;20163;-70
2022/08/08 04:36:20;;;;;;;3.77;3.23;;;14.30;99.90;;;;;;5030428;28;20417;-71
2022/08/08 04:38:45;;;;;;;4.93;3.37;;;14.30;99.90;;;;;;5031927;28;20160;-73
2022/08/08 04:41:11;;;;;;;4.53;3.13;;;14.30;99.90;;;;;;5031808;28;20194;-71
2022/08/08 04:43:36;;;;;;;5.70;4.17;;;14.40;99.90;;;;;;5035737;28;20179;-71
2022/08/08 04:46:04;;;;;;;5.50;3.93;;;14.40;99.90;;;;;;5034515;28;20176;-71
2022/08/08 04:48:29;;;;;;;4.77;3.60;;;14.40;99.90;;;;;;5036046;28;20170;-71
2022/08/08 04:50:55;;;;;;;5.10;3.27;;;14.50;99.90;;;;;;5035637;28;20831;-71
2022/08/08 04:53:21;;;;;;;4.60;3.27;;;14.50;99.90;;;;;;5035934;28;20167;-71
2022/08/08 04:55:46;;;;;;;4.73;3.47;;;14.50;99.90;;;;;;5035607;28;20250;-71
2022/08/08 04:58:13;;;;;;;5.03;3.17;;;14.50;99.90;;;;;;5034466;28;20580;-71
2022/08/08 05:00:40;;;;;;;8.70;3.73;;;14.50;99.90;;;;;;5035684;28;20760;-71
2022/08/08 05:03:06;;;;;;;6.60;3.07;;;14.50;99.90;;;;;;5035682;28;20775;-71
2022/08/08 05:05:31;;;;;;;5.37;3.87;;;14.60;99.90;;;;;;5035386;28;20433;-71
2022/08/08 05:07:57;;;;;;;6.17;3.70;;;14.60;99.90;;;;;;5035605;28;20621;-71
2022/08/08 05:10:23;;;;;;;4.20;3.40;;;14.70;99.90;;;;;;5035399;28;20488;-71
2022/08/08 05:12:49;;;;;;;5.30;4.30;;;14.70;99.90;;;;;;5035582;28;20434;-71
2022/08/08 05:15:14;;;;;;;6.80;4.30;;;14.70;99.90;;;;;;5035080;28;20163;-71
2022/08/08 05:17:40;;;;;;;5.90;3.50;;;14.80;99.90;;;;;;5035401;28;20164;-71
2022/08/08 05:20:06;;;;;;;6.37;4.23;;;14.80;99.90;;;;;;5034017;28;20648;-71
2022/08/08 05:22:32;;;;;;;5.30;3.90;;;14.90;99.90;;;;;;5035176;28;20187;-71
2022/08/08 05:24:57;;;;;;;4.53;3.83;;;14.90;99.90;;;;;;5035025;28;20409;-71
2022/08/08 05:27:23;;;;;;;5.33;3.90;;;15.00;99.90;;;;;;5035161;28;20512;-71
2022/08/08 05:29:49;;;;;;;10.80;3.83;;;15.10;99.90;;;;;;5035095;28;20554;-71
2022/08/08 05:32:14;;;;;;;9.70;4.30;;;15.10;99.90;;;;;;5035189;28;20191;-71
2022/08/08 05:34:45;;;;;;;8.17;4.27;;;15.20;99.90;;;;;;5034910;28;20168;-71
2022/08/08 05:37:15;;;;;;;7.50;4.17;;;15.30;99.90;;;;;;5035145;28;20222;-71
2022/08/08 05:39:44;;;;;;;4.43;4.00;;;15.50;99.90;;;;;;5035057;28;20899;-71
2022/08/08 05:42:13;;;;;;;6.27;3.23;;;15.70;99.90;;;;;;5034937;28;20894;-71
2022/08/08 05:44:47;;;;;;;5.83;3.23;;;15.90;99.90;;;;;;5034704;28;20406;-71
2022/08/08 05:47:14;;;;;;;4.93;3.50;;;16.20;99.90;;;;;;5034941;28;20493;-71
2022/08/08 05:49:46;;;;;;;9.93;3.63;;;16.60;99.90;;;;;;5034737;28;20411;-72
2022/08/08 05:52:12;;;;;;;3.77;3.20;;;16.90;99.90;;;;;;5034608;28;20537;-71
2022/08/08 05:54:38;;;;;;;4.13;3.20;;;17.30;99.90;;;;;;5034240;28;20431;-71
2022/08/08 05:57:09;;;;;;;4.40;3.37;;;17.70;99.90;;;;;;5034646;28;20410;-71
2022/08/08 05:59:37;;;;;;;4.93;3.63;;;18.10;99.90;;;;;;5034727;28;20168;-71
2022/08/08 06:03:08;;;;;;;3.90;2.87;;;18.60;99.90;;;;;;5034507;28;20429;-72
2022/08/08 06:04:54;;;;;;;4.27;3.30;;;19.20;99.90;;;;;;5034173;28;20418;-71
2022/08/08 06:07:20;;;;;;;5.13;3.50;;;19.90;99.90;;;;;;5034397;28;20410;-72
2022/08/08 06:09:46;;;;;;;2.97;2.77;;;20.60;99.90;;;;;;5034416;28;20776;-72
2022/08/08 06:12:13;;;;;;;4.60;3.20;;;21.10;99.90;;;;;;5034250;28;20661;-72
2022/08/08 06:14:39;;;;;;;3.60;3.30;;;21.60;99.90;;;;;;5034126;28;20918;-72
2022/08/08 06:17:06;;;;;;;4.83;4.27;;;22.10;99.90;;;;;;5034251;28;20402;-72
2022/08/08 06:19:32;;;;;;;3.70;3.23;;;22.50;99.90;;;;;;5034185;28;20255;-72
2022/08/08 06:21:57;;;;;;;3.23;2.90;;;22.80;99.90;;;;;;5034134;28;20521;-72
2022/08/08 06:24:23;;;;;;;4.27;3.40;;;23.00;99.90;;;;;;5034006;28;20261;-72
2022/08/08 06:27:03;;;;;;;4.87;3.43;;;23.20;99.90;;;;;;5034179;28;20175;-72
2022/08/08 06:29:34;;;;;;;5.57;4.03;;;23.30;99.90;;;;;;5034124;28;20167;-73
2022/08/08 06:32:03;;;;;;;3.17;2.87;;;23.40;99.90;;;;;;5033944;28;20459;-72
2022/08/08 06:34:35;;;;;;;3.93;3.10;;;23.60;99.90;;;;;;5033802;28;20413;-72
2022/08/08 06:37:02;;;;;;;4.60;2.97;;;24.00;99.90;;;;;;5032884;28;20472;-72
2022/08/08 06:39:29;;;;;;;3.57;2.43;;;24.40;99.90;;;;;;5032652;28;20411;-72
2022/08/08 06:41:57;;;;;;;6.20;4.83;;;25.10;99.90;;;;;;5033836;28;20434;-72
2022/08/08 06:44:24;;;;;;;3.13;2.80;;;25.70;98.10;;;;;;5033455;28;20409;-72
2022/08/08 06:46:51;;;;;;;7.53;3.70;;;26.30;95.30;;;;;;5033879;28;20446;-72
2022/08/08 06:49:17;;;;;;;3.47;3.13;;;26.80;92.30;;;;;;5033807;28;20410;-72
2022/08/08 06:51:43;;;;;;;3.53;3.20;;;27.10;90.10;;;;;;5033324;28;20466;-72
2022/08/08 06:54:09;;;;;;;4.53;3.30;;;27.30;85.00;;;;;;5033596;28;20413;-72
2022/08/08 06:56:35;;;;;;;4.23;3.33;;;27.30;82.60;;;;;;5033473;28;20187;-72
2022/08/08 06:59:01;;;;;;;14.63;9.07;;;27.50;80.70;;;;;;5033567;28;20399;-72
2022/08/08 07:01:33;;;;;;;8.80;4.27;;;27.70;77.20;;;;;;5033424;28;20521;-72
2022/08/08 07:04:08;;;;;;;5.70;2.50;;;28.00;76.60;;;;;;5033245;28;20459;-72
2022/08/08 07:06:37;;;;;;;4.00;3.57;;;28.60;74.20;;;;;;5032876;28;20445;-72
2022/08/08 07:09:11;;;;;;;3.47;2.80;;;29.30;70.00;;;;;;5033254;28;20407;-72
2022/08/08 07:11:41;;;;;;;4.40;3.20;;;29.70;66.00;;;;;;5033123;28;20472;-72
2022/08/08 07:14:12;;;;;;;5.20;2.87;;;30.20;62.80;;;;;;5033215;28;20386;-72
2022/08/08 07:17:04;;;;;;;5.50;3.20;;;30.50;62.30;;;;;;5033151;28;20923;-72
2022/08/08 07:19:37;;;;;;;3.20;2.90;;;30.90;58.60;;;;;;5032889;28;20502;-72
2022/08/08 07:22:05;;;;;;;3.90;2.93;;;31.40;56.90;;;;;;5033538;28;20532;-73
2022/08/08 07:24:43;;;;;;;5.70;3.43;;;31.70;56.20;;;;;;5032710;28;20413;-73
2022/08/08 07:27:12;;;;;;;6.23;2.90;;;31.90;54.90;;;;;;5032890;28;20505;-72
2022/08/08 07:29:39;;;;;;;3.90;3.53;;;32.40;53.30;;;;;;5032871;28;20977;-73
2022/08/08 07:32:09;;;;;;;4.00;3.30;;;32.80;51.70;;;;;;5032692;28;20450;-73
2022/08/08 07:34:35;;;;;;;3.00;2.77;;;33.30;50.80;;;;;;5032362;28;20398;-73
2022/08/08 07:37:03;;;;;;;4.60;3.57;;;33.90;49.90;;;;;;5032766;28;20868;-73
2022/08/08 07:39:30;;;;;;;3.60;3.13;;;34.50;48.60;;;;;;5032722;28;20401;-73
2022/08/08 07:41:59;;;;;;;4.70;3.20;;;35.10;47.30;;;;;;5032716;28;20418;-73
2022/08/08 07:44:25;;;;;;;3.90;3.60;;;35.80;46.60;;;;;;5032428;28;20429;-73
2022/08/08 07:46:51;;;;;;;3.50;3.17;;;36.30;44.90;;;;;;5032607;28;20492;-73
2022/08/08 07:49:17;;;;;;;3.60;3.30;;;37.00;43.80;;;;;;5032572;28;20167;-73
2022/08/08 07:51:43;;;;;;;3.73;3.30;;;37.30;43.10;;;;;;5032260;28;20503;-73
2022/08/08 07:54:27;;;;;;;4.47;3.40;;;37.80;42.20;;;;;;5031882;28;20191;-73
2022/08/08 07:57:28;;;;;;;3.50;3.20;;;38.10;40.50;;;;;;5032983;28;20377;-73
2022/08/08 08:00:04;;;;;;;5.67;4.93;;;38.60;39.90;;;;;;5031473;28;20899;-73
2022/08/08 08:02:36;;;;;;;3.20;3.00;;;38.80;38.90;;;;;;5032327;28;20910;-73
2022/08/08 08:05:04;;;;;;;3.70;3.33;;;38.80;39.00;;;;;;5032038;28;20407;-73
2022/08/08 08:07:33;;;;;;;3.43;3.13;;;39.10;38.10;;;;;;5032328;28;20455;-73
2022/08/08 08:10:02;;;;;;;4.27;3.63;;;39.60;37.70;;;;;;5032250;28;20884;-73
2022/08/08 08:12:28;;;;;;;4.23;3.83;;;40.00;38.20;;;;;;5032052;28;20417;-73
2022/08/08 08:15:03;;;;;;;3.23;2.93;;;40.50;37.80;;;;;;5031910;28;20392;-73
2022/08/08 08:17:29;;;;;;;3.83;3.53;;;41.00;37.80;;;;;;5032048;28;20171;-73
2022/08/08 08:20:03;;;;;;;4.30;3.70;;;41.40;35.40;;;;;;5031822;28;20406;-73
2022/08/08 08:22:28;;;;;;;3.40;3.20;;;41.80;34.80;;;;;;5031996;28;20238;-73
2022/08/08 08:24:54;;;;;;;3.63;3.27;;;42.00;35.40;;;;;;5031803;28;20410;-74
2022/08/08 08:27:20;;;;;;;3.73;3.43;;;42.50;33.20;;;;;;5032083;28;20567;-73
2022/08/08 08:29:46;;;;;;;3.77;3.47;;;42.30;34.40;;;;;;5032007;28;20155;-73
2022/08/08 08:32:12;;;;;;;4.07;3.77;;;42.00;33.60;;;;;;5031945;28;20458;-73
2022/08/08 08:34:38;;;;;;;4.97;4.07;;;42.30;33.30;;;;;;5031811;28;20171;-73
2022/08/08 08:37:03;;;;;;;3.60;3.30;;;42.50;32.80;;;;;;5031950;28;20210;-73
2022/08/08 08:39:29;;;;;;;3.90;3.53;;;42.70;33.30;;;;;;5032004;28;20550;-73
2022/08/08 08:41:56;;;;;;;3.90;3.60;;;42.70;33.30;;;;;;5031912;28;20214;-73
2022/08/08 08:44:24;;;;;;;3.67;3.37;;;43.00;32.40;;;;;;5031242;28;20210;-73
2022/08/08 08:46:51;;;;;;;3.23;3.03;;;43.10;31.40;;;;;;5031290;28;20742;-73
2022/08/08 08:49:16;;;;;;;3.10;2.90;;;43.50;31.50;;;;;;5031136;28;20414;-73
2022/08/08 08:51:43;;;;;;;3.63;3.33;;;43.60;32.50;;;;;;5030429;28;20464;-73
2022/08/08 08:54:11;;;;;;;3.77;3.47;;;43.90;31.20;;;;;;5031404;28;20164;-73
2022/08/08 08:56:38;;;;;;;3.60;3.30;;;44.30;31.30;;;;;;5030204;28;20384;-73
2022/08/08 08:59:04;;;;;;;2.97;2.67;;;44.70;30.60;;;;;;5031502;28;20867;-73
2022/08/08 09:01:33;;;;;;;2.90;2.70;;;45.20;30.00;;;;;;5031317;28;21411;-73
2022/08/08 09:04:18;;;;;;;3.47;3.20;;;45.70;29.90;;;;;;5031357;28;20451;-73
2022/08/08 09:06:45;;;;;;;3.10;2.90;;;46.20;28.80;;;;;;5031395;28;20740;-73
2022/08/08 09:09:18;;;;;;;3.00;2.80;;;46.30;28.20;;;;;;5031477;28;20464;-73
2022/08/08 09:11:46;;;;;;;3.33;3.13;;;46.50;28.40;;;;;;5031276;28;20414;-73
2022/08/08 09:14:13;;;;;;;3.37;2.83;;;46.70;28.30;;;;;;5031147;28;20421;-74
2022/08/08 09:16:39;;;;;;;3.10;2.90;;;46.50;26.60;;;;;;5031114;28;20417;-73
2022/08/08 09:19:04;;;;;;;5.57;3.40;;;46.70;27.20;;;;;;5031428;28;20955;-73
2022/08/08 09:21:30;;;;;;;3.50;3.23;;;46.90;27.30;;;;;;5031183;28;20633;-73
2022/08/08 09:23:57;;;;;;;3.70;3.40;;;47.00;26.60;;;;;;5031174;28;20218;-73
2022/08/08 09:26:37;;;;;;;2.80;2.60;;;47.10;27.10;;;;;;5030835;28;20402;-73
2022/08/08 09:29:06;;;;;;;3.00;2.80;;;47.00;27.10;;;;;;5033837;28;20496;-73
2022/08/08 09:31:47;;;;;;;2.80;2.60;;;46.90;26.70;;;;;;5034779;28;20436;-73
2022/08/08 09:34:16;;;;;;;3.10;2.80;;;47.00;26.20;;;;;;5034711;28;20509;-73
2022/08/08 09:36:45;;;;;;;3.03;2.83;;;47.30;26.20;;;;;;5034892;28;20846;-73
2022/08/08 09:39:11;;;;;;;3.23;3.03;;;47.60;26.50;;;;;;5033527;28;20414;-73
2022/08/08 09:41:38;;;;;;;3.00;2.80;;;48.30;26.70;;;;;;5034543;28;20465;-73
2022/08/08 09:44:23;;;;;;;2.87;2.67;;;48.40;26.00;;;;;;5034438;28;20406;-73
2022/08/08 09:46:50;;;;;;;3.03;2.83;;;48.50;25.60;;;;;;5034621;28;20426;-73
2022/08/08 09:49:17;;;;;;;4.27;3.97;;;48.80;25.20;;;;;;5034592;28;20414;-74
2022/08/08 09:51:49;;;;;;;2.93;2.73;;;49.00;25.20;;;;;;5034484;28;20472;-73
2022/08/08 09:54:18;;;;;;;2.90;2.70;;;49.10;25.20;;;;;;5034365;28;20397;-73
2022/08/08 09:56:46;;;;;;;3.07;2.87;;;49.10;24.80;;;;;;5034459;28;20437;-73
2022/08/08 09:59:17;;;;;;;3.00;2.80;;;49.40;25.50;;;;;;5034236;28;20464;-73
2022/08/08 10:01:46;;;;;;;2.90;2.70;;;49.60;25.10;;;;;;5033570;28;20548;-73
2022/08/08 10:04:14;;;;;;;3.50;3.20;;;49.60;24.70;;;;;;5034164;28;20398;-73
2022/08/08 10:06:41;;;;;;;3.00;2.80;;;49.40;24.50;;;;;;5034281;28;20414;-73
2022/08/08 10:09:07;;;;;;;2.97;2.77;;;49.30;24.50;;;;;;5034230;28;20403;-73
2022/08/08 10:11:34;;;;;;;3.17;2.97;;;49.40;24.60;;;;;;5034130;28;20540;-73
2022/08/08 10:14:03;;;;;;;3.17;2.97;;;49.40;24.70;;;;;;5034115;28;20167;-73
2022/08/08 10:16:39;;;;;;;3.30;3.00;;;49.60;24.90;;;;;;5033451;28;20399;-73
2022/08/08 10:19:08;;;;;;;3.20;3.00;;;50.20;24.70;;;;;;5034059;28;20406;-73
2022/08/08 10:21:34;;;;;;;2.90;2.80;;;49.90;24.20;;;;;;5033563;28;20460;-73
2022/08/08 10:24:08;;;;;;;3.30;3.03;;;50.00;24.10;;;;;;5033962;28;20489;-73
2022/08/08 10:26:51;;;;;;;3.30;3.10;;;50.10;23.90;;;;;;5033710;28;20923;-73
2022/08/08 10:29:32;;;;;;;3.37;3.17;;;49.90;24.00;;;;;;5033867;28;20415;-73
2022/08/08 10:34:51;;;;;;;2.90;2.70;;;50.20;24.30;;;;;;5033913;28;20421;-73
2022/08/08 10:37:29;;;;;;;4.23;3.97;;;50.20;23.90;;;;;;5033702;28;20401;-73
2022/08/08 10:39:57;;;;;;;3.10;2.90;;;50.10;24.10;;;;;;5032601;28;20919;-72
2022/08/08 10:42:30;;;;;;;3.20;2.93;;;50.40;24.20;;;;;;5033475;28;20426;-72
2022/08/08 10:45:05;;;;;;;3.10;2.90;;;50.60;23.80;;;;;;5032016;28;20418;-72
2022/08/08 10:47:31;;;;;;;3.03;2.83;;;50.40;23.20;;;;;;5033593;28;20402;-72
2022/08/08 10:50:02;;;;;;;2.57;2.47;;;50.90;23.10;;;;;;5033532;28;20406;-72
2022/08/08 10:52:41;;;;;;;3.23;2.93;;;50.40;23.40;;;;;;5033227;28;20254;-72
2022/08/08 10:55:07;;;;;;;3.63;3.43;;;50.60;23.80;;;;;;5033096;28;20803;-72
2022/08/08 10:57:40;;;;;;;3.47;3.17;;;50.60;23.30;;;;;;5033319;28;20411;-72
2022/08/08 11:00:09;;;;;;;3.67;3.47;;;50.70;23.40;;;;;;5033190;28;20643;-72
2022/08/08 11:02:35;;;;;;;5.10;3.30;;;50.90;23.40;;;;;;5031757;28;20440;-72
2022/08/08 11:05:08;;;;;;;3.70;3.40;;;51.20;23.30;;;;;;5032788;28;20873;-72
2022/08/08 11:07:51;;;;;;;3.30;3.10;;;51.10;22.70;;;;;;5033268;28;20460;-73
2022/08/08 11:10:20;;;;;;;3.60;3.30;;;51.30;23.00;;;;;;5032752;28;20410;-73
2022/08/08 11:12:56;;;;;;;3.70;3.43;;;51.40;23.00;;;;;;5033075;28;20506;-73
2022/08/08 11:15:23;;;;;;;3.13;2.93;;;51.30;23.00;;;;;;5032587;28;20425;-73
2022/08/08 11:17:50;;;;;;;3.03;2.83;;;51.30;22.90;;;;;;5032970;28;20402;-73
2022/08/08 11:20:18;;;;;;;8.63;3.57;;;51.30;23.60;;;;;;5032975;28;20504;-73
2022/08/08 11:22:49;;;;;;;4.00;3.70;;;51.60;23.80;;;;;;5033014;28;20461;-73
2022/08/08 11:25:16;;;;;;;3.50;3.30;;;51.60;23.20;;;;;;5032806;28;20971;-73
2022/08/08 11:27:45;;;;;;;3.77;3.57;;;51.90;22.80;;;;;;5032816;28;20492;-73
2022/08/08 11:30:11;;;;;;;3.40;3.10;;;51.50;22.60;;;;;;5032964;28;20410;-73
2022/08/08 11:32:41;;;;;;;3.13;2.93;;;51.50;23.00;;;;;;5032930;28;20456;-73
2022/08/08 11:35:12;;;;;;;4.40;4.10;;;51.20;22.60;;;;;;5032850;28;20168;-73
2022/08/08 11:37:40;;;;;;;3.60;3.40;;;51.70;23.50;;;;;;5032825;28;20402;-73
2022/08/08 11:40:09;;;;;;;3.67;3.47;;;51.60;23.10;;;;;;5032697;28;20413;-73
2022/08/08 11:42:35;;;;;;;4.10;3.80;;;51.80;22.80;;;;;;5032590;28;20943;-73
2022/08/08 11:45:02;;;;;;;3.30;3.10;;;52.20;23.30;;;;;;5032471;28;20521;-73
2022/08/08 11:47:28;;;;;;;4.30;4.00;;;52.30;22.50;;;;;;5032702;28;20502;-73
2022/08/08 11:49:56;;;;;;;3.60;3.40;;;52.10;22.50;;;;;;5032668;28;20493;-73
2022/08/08 11:52:24;;;;;;;3.40;3.20;;;51.90;23.20;;;;;;5032157;28;20695;-73
2022/08/08 11:54:49;;;;;;;4.00;3.70;;;51.90;23.10;;;;;;5032195;28;20406;-73
2022/08/08 11:57:19;;;;;;;4.17;3.87;;;52.00;22.60;;;;;;5031699;28;20487;-72
2022/08/08 11:59:53;;;;;;;4.20;3.90;;;52.20;22.40;;;;;;5033190;28;20503;-72
2022/08/08 12:02:20;;;;;;;4.53;3.80;;;52.40;23.30;;;;;;5032402;28;20854;-73
2022/08/08 12:04:46;;;;;;;4.40;4.00;;;52.70;22.80;;;;;;5030844;28;20409;-72
2022/08/08 12:07:12;;;;;;;3.87;3.67;;;52.40;22.00;;;;;;5032208;28;20942;-72
2022/08/08 12:09:37;;;;;;;3.77;3.57;;;52.70;22.20;;;;;;5032269;28;20167;-72
2022/08/08 12:12:03;;;;;;;3.90;3.70;;;52.50;21.90;;;;;;5032221;28;20191;-73
2022/08/08 12:14:28;;;;;;;3.73;3.47;;;52.60;22.20;;;;;;5031796;28;20225;-73
2022/08/08 12:16:55;;;;;;;4.20;3.90;;;52.60;22.30;;;;;;5032163;28;20225;-72
2022/08/08 12:19:22;;;;;;;7.77;4.10;;;52.40;21.80;;;;;;5032860;28;20175;-72
2022/08/08 12:21:48;;;;;;;4.00;3.60;;;52.20;21.80;;;;;;5033002;28;20457;-72
2022/08/08 12:24:15;;;;;;;3.50;3.30;;;51.80;22.70;;;;;;5031651;28;20422;-71
2022/08/08 12:26:43;;;;;;;3.00;2.90;;;51.60;22.40;;;;;;5031693;28;20476;-72
2022/08/08 12:29:22;;;;;;;3.60;3.30;;;51.60;22.50;;;;;;5033284;28;20406;-73
2022/08/08 12:32:05;;;;;;;2.87;2.77;;;51.40;22.40;;;;;;5031957;28;20445;-72
2022/08/08 12:34:50;;;;;;;3.73;3.53;;;51.40;22.90;;;;;;5031744;28;20414;-72
2022/08/08 12:37:28;;;;;;;3.53;3.27;;;51.30;22.60;;;;;;5032131;28;20410;-72
2022/08/08 12:39:54;;;;;;;3.20;3.00;;;50.90;22.20;;;;;;5032016;28;20418;-72
2022/08/08 12:42:20;;;;;;;3.10;2.90;;;50.90;22.90;;;;;;5031679;28;20458;-72
2022/08/08 12:44:45;;;;;;;3.20;3.00;;;50.90;22.60;;;;;;5031692;28;20412;-72
2022/08/08 12:47:11;;;;;;;3.20;2.93;;;50.60;23.00;;;;;;5031882;28;20497;-72
2022/08/08 12:49:38;;;;;;;3.03;2.83;;;50.10;22.80;;;;;;5031937;28;20526;-72
2022/08/08 12:52:06;;;;;;;3.07;2.87;;;49.80;23.00;;;;;;5030393;28;20450;-72
2022/08/08 12:54:36;;;;;;;2.80;2.60;;;49.70;23.00;;;;;;5031540;28;20492;-73
2022/08/08 12:57:22;;;;;;;3.27;2.90;;;49.80;22.90;;;;;;5030474;28;20540;-73
2022/08/08 12:59:53;;;;;;;3.40;3.00;;;49.30;22.00;;;;;;5031679;28;20410;-73
2022/08/08 13:02:30;;;;;;;2.83;2.63;;;49.40;23.00;;;;;;5031609;28;20500;-73
2022/08/08 13:04:58;;;;;;;3.83;3.00;;;49.60;22.80;;;;;;5035374;28;20476;-72
2022/08/08 13:07:38;;;;;;;3.37;3.17;;;49.30;23.10;;;;;;5035662;28;20768;-72
2022/08/08 13:10:13;;;;;;;2.90;2.70;;;49.60;23.20;;;;;;5035776;28;20398;-71
2022/08/08 13:12:44;;;;;;;2.90;2.70;;;49.10;22.30;;;;;;5036140;28;20440;-71
2022/08/08 13:15:12;;;;;;;3.17;2.97;;;48.90;22.80;;;;;;5035197;28;20413;-71
2022/08/08 13:17:38;;;;;;;2.50;2.30;;;48.80;23.50;;;;;;5034957;28;20410;-72
2022/08/08 13:20:12;;;;;;;2.97;2.60;;;48.40;23.30;;;;;;5035366;28;20413;-72
2022/08/08 13:22:38;;;;;;;3.30;2.87;;;48.40;23.30;;;;;;5035415;28;20457;-72
2022/08/08 13:25:04;;;;;;;2.83;2.63;;;48.30;23.10;;;;;;5035250;28;20440;-72
2022/08/08 13:27:30;;;;;;;2.90;2.70;;;47.80;23.80;;;;;;5035176;28;20659;-72